Time;durP1;ratioP1;P1;durP2;ratioP2;P2;SDS_P1;SDS_P2;PMS_P1;PMS_P2;Temp;Humidity;BMP_temperature;BMP_pressure;BME280_temperature;BME280_humidity;BME280_pressure;Samples;Min_cycle;Max_cycle;Signal;HPM_P1;HPM_P2
2022/06/18 00:00:13;;;;;;;2.92;1.13;;;;;;;;;;5019535;28;20067;-81
2022/06/18 00:02:40;;;;;;;1.40;0.90;;;;;;;;;;5019217;28;20033;-80
2022/06/18 00:05:06;;;;;;;1.75;0.90;;;;;;;;;;5036551;28;20025;-81
2022/06/18 00:07:32;;;;;;;2.33;0.80;;;;;;;;;;5003160;28;20398;-81
2022/06/18 00:10:01;;;;;;;1.80;0.90;;;;;;;;;;5035700;28;20040;-81
2022/06/18 00:15:13;;;;;;;2.55;1.05;;;;;;;;;;5035566;28;20029;-81
2022/06/18 00:17:39;;;;;;;4.60;1.00;;;;;;;;;;5035640;28;20483;-81
2022/06/18 00:20:05;;;;;;;3.78;1.00;;;;;;;;;;5022594;28;20059;-81
2022/06/18 00:22:31;;;;;;;3.03;0.77;;;;;;;;;;5060401;28;20040;-81
2022/06/18 00:24:56;;;;;;;1.40;0.82;;;;;;;;;;5058662;28;20046;-81
2022/06/18 00:27:22;;;;;;;3.60;1.58;;;;;;;;;;5058106;28;20024;-81
2022/06/18 00:29:48;;;;;;;1.90;0.85;;;;;;;;;;5058521;28;20497;-81
2022/06/18 00:32:14;;;;;;;1.50;0.80;;;;;;;;;;5075543;28;20505;-81
2022/06/18 00:34:39;;;;;;;2.85;1.17;;;;;;;;;;5075625;28;20071;-80
2022/06/18 00:37:05;;;;;;;2.67;1.15;;;;;;;;;;5058901;28;20032;-80
2022/06/18 00:39:30;;;;;;;2.03;1.05;;;;;;;;;;5042081;28;20043;-80
2022/06/18 00:41:56;;;;;;;2.00;1.10;;;;;;;;;;5041686;28;20047;-80
2022/06/18 00:44:30;;;;;;;2.55;0.90;;;;;;;;;;5058522;28;20090;-80
2022/06/18 00:47:16;;;;;;;2.92;0.98;;;;;;;;;;5064620;28;20032;-80
2022/06/18 00:50:00;;;;;;;2.10;1.10;;;;;;;;;;5038319;28;20087;-80
2022/06/18 00:52:49;;;;;;;1.73;0.98;;;;;;;;;;5019678;28;20029;-80
2022/06/18 00:55:28;;;;;;;1.40;0.85;;;;;;;;;;5049590;28;20063;-80
2022/06/18 00:58:26;;;;;;;3.10;1.30;;;;;;;;;;5019556;28;20048;-80
2022/06/18 01:00:51;;;;;;;1.95;1.00;;;;;;;;;;5054599;28;20040;-80
2022/06/18 01:03:34;;;;;;;2.38;1.02;;;;;;;;;;5038152;28;20040;-80
2022/06/18 01:06:02;;;;;;;3.03;1.30;;;;;;;;;;5022009;28;20119;-80
2022/06/18 01:08:29;;;;;;;2.53;1.00;;;;;;;;;;5038533;28;20091;-81
2022/06/18 01:10:58;;;;;;;2.00;1.20;;;;;;;;;;5018015;28;20045;-80
2022/06/18 01:13:27;;;;;;;1.52;0.98;;;;;;;;;;5033564;28;20499;-80
2022/06/18 01:15:53;;;;;;;3.08;0.90;;;;;;;;;;5038321;28;20116;-80
2022/06/18 01:18:18;;;;;;;2.85;1.55;;;;;;;;;;5037673;28;20115;-81
2022/06/18 01:20:46;;;;;;;2.53;1.00;;;;;;;;;;5030115;28;20051;-81
2022/06/18 01:23:18;;;;;;;2.42;1.05;;;;;;;;;;5053908;28;20111;-81
2022/06/18 01:25:44;;;;;;;2.83;1.35;;;;;;;;;;5057327;28;20510;-80
2022/06/18 01:28:13;;;;;;;2.08;1.10;;;;;;;;;;5057704;28;20032;-80
2022/06/18 01:30:39;;;;;;;2.38;1.05;;;;;;;;;;5074318;28;20036;-80
2022/06/18 01:33:06;;;;;;;3.28;1.48;;;;;;;;;;5074175;28;20089;-80
2022/06/18 01:35:32;;;;;;;2.85;1.20;;;;;;;;;;5057935;28;20082;-80
2022/06/18 01:37:57;;;;;;;2.33;1.10;;;;;;;;;;5040580;28;20040;-80
2022/06/18 01:40:29;;;;;;;2.90;1.25;;;;;;;;;;5069529;28;20051;-80
2022/06/18 01:42:55;;;;;;;2.20;1.03;;;;;;;;;;5037893;28;20085;-80
2022/06/18 01:45:23;;;;;;;3.00;1.20;;;;;;;;;;5037375;28;20447;-80
2022/06/18 01:47:50;;;;;;;2.63;1.00;;;;;;;;;;5037394;28;20036;-80
2022/06/18 01:50:47;;;;;;;3.33;1.35;;;;;;;;;;5054144;28;20063;-80
2022/06/18 01:53:19;;;;;;;2.90;1.17;;;;;;;;;;5019491;28;20052;-80
2022/06/18 01:55:58;;;;;;;2.80;0.80;;;;;;;;;;5051495;28;20045;-80
2022/06/18 01:58:40;;;;;;;1.70;0.80;;;;;;;;;;5053552;28;20419;-80
2022/06/18 02:01:08;;;;;;;3.42;1.02;;;;;;;;;;5037318;28;20028;-80
2022/06/18 02:03:33;;;;;;;1.80;0.82;;;;;;;;;;5018064;28;20052;-81
2022/06/18 02:05:59;;;;;;;3.28;1.27;;;;;;;;;;5017610;28;20398;-81
2022/06/18 02:08:27;;;;;;;2.78;0.85;;;;;;;;;;5007939;28;20036;-80
2022/06/18 02:10:53;;;;;;;2.20;1.00;;;;;;;;;;5033577;28;20049;-80
2022/06/18 02:13:19;;;;;;;2.92;0.95;;;;;;;;;;5039086;28;20072;-80
2022/06/18 02:15:46;;;;;;;2.00;1.00;;;;;;;;;;5037019;28;20089;-80
2022/06/18 02:18:13;;;;;;;3.22;0.90;;;;;;;;;;5020285;28;20040;-81
2022/06/18 02:20:44;;;;;;;3.00;1.10;;;;;;;;;;5029355;28;20076;-81
2022/06/18 02:23:10;;;;;;;2.40;1.30;;;;;;;;;;5051745;28;20494;-81
2022/06/18 02:25:35;;;;;;;2.20;0.98;;;;;;;;;;5039869;28;20293;-81
2022/06/18 02:28:02;;;;;;;2.92;1.10;;;;;;;;;;5056724;28;20028;-81
2022/06/18 02:30:31;;;;;;;2.08;1.08;;;;;;;;;;5056898;28;20036;-80
2022/06/18 02:33:00;;;;;;;2.38;1.30;;;;;;;;;;5073434;28;20038;-81
2022/06/18 02:35:27;;;;;;;2.65;1.35;;;;;;;;;;5041263;28;20033;-80
2022/06/18 02:37:54;;;;;;;1.67;1.02;;;;;;;;;;5032811;28;20053;-80
2022/06/18 02:40:22;;;;;;;2.33;0.88;;;;;;;;;;5014186;28;20041;-81
2022/06/18 02:42:48;;;;;;;4.28;1.23;;;;;;;;;;5032557;28;20037;-81
2022/06/18 02:45:13;;;;;;;1.48;0.93;;;;;;;;;;5033307;28;20041;-81
2022/06/18 02:47:39;;;;;;;1.25;0.80;;;;;;;;;;5049623;28;20083;-80
2022/06/18 02:50:08;;;;;;;2.53;1.05;;;;;;;;;;5049980;28;20041;-80
2022/06/18 02:52:36;;;;;;;1.50;0.80;;;;;;;;;;5033251;28;20033;-80
2022/06/18 02:55:33;;;;;;;2.20;0.90;;;;;;;;;;5033195;28;20108;-81
2022/06/18 02:58:08;;;;;;;1.75;0.90;;;;;;;;;;5049764;28;20037;-81
2022/06/18 03:00:36;;;;;;;2.00;0.90;;;;;;;;;;5033569;28;20037;-81
2022/06/18 03:03:03;;;;;;;2.13;0.82;;;;;;;;;;5017337;28;20041;-81
2022/06/18 03:05:29;;;;;;;2.55;1.08;;;;;;;;;;5009984;28;20045;-80
2022/06/18 03:07:54;;;;;;;2.05;0.95;;;;;;;;;;5031727;28;20025;-80
2022/06/18 03:13:07;;;;;;;2.72;1.17;;;;;;;;;;5043592;28;20045;-80
2022/06/18 03:15:33;;;;;;;1.50;0.70;;;;;;;;;;5019875;28;20125;-81
2022/06/18 03:17:59;;;;;;;2.35;0.80;;;;;;;;;;5036237;28;20067;-81
2022/06/18 03:20:28;;;;;;;2.63;1.02;;;;;;;;;;5035595;28;20033;-81
2022/06/18 03:22:54;;;;;;;1.20;0.70;;;;;;;;;;5042511;28;20418;-81
2022/06/18 03:25:19;;;;;;;4.13;1.20;;;;;;;;;;5039545;28;20043;-81
2022/06/18 03:27:45;;;;;;;1.52;0.80;;;;;;;;;;5055983;28;20085;-81
2022/06/18 03:30:11;;;;;;;2.58;1.00;;;;;;;;;;5072922;28;20417;-81
2022/06/18 03:32:37;;;;;;;2.25;0.70;;;;;;;;;;5039835;28;20479;-81
2022/06/18 03:35:03;;;;;;;2.65;0.90;;;;;;;;;;5056022;28;20071;-81
2022/06/18 03:37:28;;;;;;;1.88;0.88;;;;;;;;;;5041138;28;20394;-81
2022/06/18 03:39:53;;;;;;;3.38;0.95;;;;;;;;;;5059798;28;20413;-81
2022/06/18 03:42:19;;;;;;;4.63;0.98;;;;;;;;;;5059858;28;20063;-81
2022/06/18 03:44:44;;;;;;;2.72;1.05;;;;;;;;;;5059874;28;20040;-81
2022/06/18 03:47:10;;;;;;;1.73;1.00;;;;;;;;;;5059713;28;20451;-81
2022/06/18 03:49:35;;;;;;;1.55;0.75;;;;;;;;;;5042856;28;20732;-80
2022/06/18 03:52:02;;;;;;;2.58;0.95;;;;;;;;;;5059674;28;20395;-81
2022/06/18 03:54:28;;;;;;;1.83;1.00;;;;;;;;;;5059301;28;20425;-81
2022/06/18 03:56:53;;;;;;;5.20;1.42;;;;;;;;;;5059430;28;20043;-81
2022/06/18 03:59:19;;;;;;;1.90;0.80;;;;;;;;;;5059337;28;20047;-82
2022/06/18 04:01:45;;;;;;;2.17;1.00;;;;;;;;;;5042631;28;20028;-81
2022/06/18 04:04:11;;;;;;;1.73;0.70;;;;;;;;;;5075587;28;20390;-81
2022/06/18 04:06:38;;;;;;;2.92;1.70;;;;;;;;;;5068639;28;20029;-81
2022/06/18 04:09:03;;;;;;;1.88;0.90;;;;;;;;;;5039466;28;20036;-81
2022/06/18 04:11:29;;;;;;;2.08;1.10;;;;;;;;;;5022531;28;20049;-81
2022/06/18 04:13:57;;;;;;;2.40;0.95;;;;;;;;;;5022699;28;20101;-81
2022/06/18 04:16:23;;;;;;;2.22;0.93;;;;;;;;;;5023572;28;20074;-81
2022/06/18 04:18:49;;;;;;;3.30;1.00;;;;;;;;;;5038824;28;20441;-81
2022/06/18 04:21:15;;;;;;;1.95;0.80;;;;;;;;;;5022835;28;20032;-81
2022/06/18 04:23:41;;;;;;;2.55;1.05;;;;;;;;;;5052767;28;20116;-81
2022/06/18 04:26:06;;;;;;;1.80;0.95;;;;;;;;;;5039163;28;20040;-80
2022/06/18 04:28:32;;;;;;;1.27;0.82;;;;;;;;;;5003356;28;20384;-81
2022/06/18 04:30:57;;;;;;;3.38;1.13;;;;;;;;;;5022568;28;20060;-81
2022/06/18 04:33:23;;;;;;;1.60;0.82;;;;;;;;;;5018630;28;20041;-81
2022/06/18 04:35:52;;;;;;;1.80;0.82;;;;;;;;;;5005328;28;20698;-81
2022/06/18 04:38:18;;;;;;;3.22;0.82;;;;;;;;;;5022127;28;20037;-80
2022/06/18 04:40:44;;;;;;;2.65;0.70;;;;;;;;;;5022465;28;20056;-80
2022/06/18 04:43:09;;;;;;;2.00;0.90;;;;;;;;;;5006086;28;20035;-81
2022/06/18 04:45:35;;;;;;;3.15;0.88;;;;;;;;;;5036068;28;20053;-80
2022/06/18 04:48:00;;;;;;;2.33;0.95;;;;;;;;;;5005092;28;20047;-80
2022/06/18 04:50:31;;;;;;;1.30;0.73;;;;;;;;;;5038357;28;20036;-80
2022/06/18 04:52:56;;;;;;;2.67;1.08;;;;;;;;;;5022154;28;20044;-81
2022/06/18 04:55:25;;;;;;;1.52;0.82;;;;;;;;;;5021992;28;20032;-81
2022/06/18 04:57:51;;;;;;;1.10;0.90;;;;;;;;;;5038031;28;20032;-80
2022/06/18 05:00:16;;;;;;;1.63;1.00;;;;;;;;;;5038238;28;20059;-83
2022/06/18 05:02:42;;;;;;;2.10;0.85;;;;;;;;;;5021579;28;20028;-84
2022/06/18 05:05:19;;;;;;;3.58;0.82;;;;;;;;;;5021918;28;20044;-85
2022/06/18 05:07:44;;;;;;;2.13;1.17;;;;;;;;;;5018479;28;20568;-81
2022/06/18 05:10:10;;;;;;;3.58;1.10;;;;;;;;;;5002086;28;20033;-85
2022/06/18 05:12:35;;;;;;;3.63;1.83;;;;;;;;;;5001922;28;20041;-84
2022/06/18 05:15:01;;;;;;;4.32;1.15;;;;;;;;;;5018195;28;20082;-85
2022/06/18 05:17:30;;;;;;;3.70;1.25;;;;;;;;;;5017945;28;20028;-84
2022/06/18 05:19:56;;;;;;;3.75;0.88;;;;;;;;;;5011179;28;20025;-85
2022/06/18 05:22:24;;;;;;;3.83;1.50;;;;;;;;;;5014174;28;20086;-86
2022/06/18 05:24:49;;;;;;;4.03;1.00;;;;;;;;;;5041658;28;20039;-84
2022/06/18 05:27:22;;;;;;;3.22;1.10;;;;;;;;;;5041315;28;20524;-83
2022/06/18 05:29:47;;;;;;;4.80;1.30;;;;;;;;;;5024429;28;20069;-84
2022/06/18 05:32:13;;;;;;;5.25;1.45;;;;;;;;;;5041403;28;20028;-84
2022/06/18 05:34:39;;;;;;;3.58;1.23;;;;;;;;;;5057605;28;20040;-83
2022/06/18 05:37:17;;;;;;;5.72;1.40;;;;;;;;;;5058028;28;20036;-84
2022/06/18 05:39:42;;;;;;;5.40;1.20;;;;;;;;;;5072881;28;20493;-86
2022/06/18 05:42:08;;;;;;;4.97;1.30;;;;;;;;;;5054751;28;20047;-84
2022/06/18 05:44:34;;;;;;;2.95;1.23;;;;;;;;;;5038020;28;20030;-84
2022/06/18 05:47:00;;;;;;;3.22;1.48;;;;;;;;;;5024595;28;20044;-84
2022/06/18 05:49:25;;;;;;;2.58;1.80;;;;;;;;;;5041264;28;20027;-84
2022/06/18 05:51:51;;;;;;;5.15;1.88;;;;;;;;;;5057495;28;20508;-84
2022/06/18 05:54:17;;;;;;;9.00;1.58;;;;;;;;;;5037351;28;20051;-84
2022/06/18 05:56:43;;;;;;;5.53;1.63;;;;;;;;;;5054976;28;20119;-84
2022/06/18 05:59:10;;;;;;;4.72;1.60;;;;;;;;;;5057233;28;20044;-84
2022/06/18 06:01:36;;;;;;;3.92;1.13;;;;;;;;;;5040373;28;20040;-84
2022/06/18 06:04:03;;;;;;;7.30;1.20;;;;;;;;;;5057187;28;20032;-84
2022/06/18 06:06:28;;;;;;;3.92;1.30;;;;;;;;;;5017838;28;20033;-84
2022/06/18 06:08:54;;;;;;;3.05;1.00;;;;;;;;;;5017379;28;20093;-84
2022/06/18 06:11:32;;;;;;;2.95;1.15;;;;;;;;;;5001103;28;20048;-85
2022/06/18 06:14:00;;;;;;;4.15;1.30;;;;;;;;;;5020963;28;20678;-84
2022/06/18 06:16:27;;;;;;;1.73;1.02;;;;;;;;;;5017505;28;20487;-83
2022/06/18 06:18:52;;;;;;;3.15;1.63;;;;;;;;;;5017545;28;20558;-83
2022/06/18 06:21:18;;;;;;;2.83;1.33;;;;;;;;;;5031887;28;20103;-83
2022/06/18 06:23:43;;;;;;;3.45;1.08;;;;;;;;;;5019367;28;20037;-82
2022/06/18 06:26:25;;;;;;;3.17;1.23;;;;;;;;;;5000926;28;20087;-84
2022/06/18 06:28:51;;;;;;;2.10;1.17;;;;;;;;;;5035996;28;20033;-83
2022/06/18 06:31:18;;;;;;;2.33;1.20;;;;;;;;;;5035657;28;20055;-84
2022/06/18 06:33:44;;;;;;;2.08;1.15;;;;;;;;;;5036382;28;20028;-84
2022/06/18 06:36:10;;;;;;;2.75;0.90;;;;;;;;;;5019834;28;20091;-84
2022/06/18 06:38:38;;;;;;;2.15;1.50;;;;;;;;;;5019967;28;20028;-83
2022/06/18 06:41:05;;;;;;;2.45;1.27;;;;;;;;;;5020493;28;20094;-83
2022/06/18 06:43:30;;;;;;;2.88;1.13;;;;;;;;;;5036544;28;20116;-83
2022/06/18 06:45:56;;;;;;;2.28;0.95;;;;;;;;;;5020175;28;20047;-83
2022/06/18 06:48:21;;;;;;;2.70;1.05;;;;;;;;;;5036605;28;20406;-84
2022/06/18 06:50:48;;;;;;;5.95;1.80;;;;;;;;;;5020579;28;20036;-84
2022/06/18 06:53:13;;;;;;;2.38;1.02;;;;;;;;;;5003975;28;20039;-84
2022/06/18 06:58:24;;;;;;;5.50;1.15;;;;;;;;;;5025047;28;20505;-86
2022/06/18 07:00:52;;;;;;;2.83;1.52;;;;;;;;;;5004209;28;20089;-86
2022/06/18 07:03:20;;;;;;;4.32;1.30;;;;;;;;;;5020636;28;20494;-85
2022/06/18 07:05:45;;;;;;;5.05;1.67;;;;;;;;;;5020089;28;20028;-85
2022/06/18 07:08:11;;;;;;;5.97;1.27;;;;;;;;;;5017056;28;20064;-85
2022/06/18 07:10:36;;;;;;;6.70;1.65;;;;;;;;;;5017140;28;20068;-84
2022/06/18 07:13:04;;;;;;;3.88;1.00;;;;;;;;;;5035540;28;20465;-85
2022/06/18 07:15:32;;;;;;;3.58;1.75;;;;;;;;;;5037256;28;20495;-92
2022/06/18 07:18:03;;;;;;;4.30;1.58;;;;;;;;;;5005232;28;20128;-90
2022/06/18 07:20:31;;;;;;;3.78;1.27;;;;;;;;;;5005408;28;20123;-88
2022/06/18 07:22:58;;;;;;;4.47;1.60;;;;;;;;;;5065247;28;20106;-87
2022/06/18 07:25:23;;;;;;;4.20;1.10;;;;;;;;;;5044061;28;20063;-85
2022/06/18 07:27:52;;;;;;;6.03;1.30;;;;;;;;;;5077077;28;20111;-86
2022/06/18 07:30:18;;;;;;;6.35;1.63;;;;;;;;;;5060692;28;20032;-84
2022/06/18 07:32:44;;;;;;;6.95;1.10;;;;;;;;;;5054976;28;20032;-84
2022/06/18 07:35:16;;;;;;;6.20;1.23;;;;;;;;;;5040236;28;20036;-84
2022/06/18 07:37:41;;;;;;;4.70;1.20;;;;;;;;;;5039770;28;20035;-85
2022/06/18 07:40:07;;;;;;;8.18;2.45;;;;;;;;;;5038730;28;20641;-85
2022/06/18 07:42:34;;;;;;;6.95;1.33;;;;;;;;;;5003894;28;20087;-84
2022/06/18 07:45:01;;;;;;;7.68;1.20;;;;;;;;;;5003906;28;20107;-85
2022/06/18 07:47:26;;;;;;;3.53;1.35;;;;;;;;;;5020169;28;20070;-85
2022/06/18 07:49:53;;;;;;;5.20;1.40;;;;;;;;;;5020014;28;20418;-85
2022/06/18 07:52:18;;;;;;;2.85;1.05;;;;;;;;;;5020130;28;20044;-85
2022/06/18 07:54:44;;;;;;;3.35;1.13;;;;;;;;;;5019382;28;20041;-85
2022/06/18 07:57:09;;;;;;;3.55;1.20;;;;;;;;;;5036256;28;20033;-85
2022/06/18 07:59:35;;;;;;;2.47;1.00;;;;;;;;;;5036177;28;20064;-85
2022/06/18 08:02:00;;;;;;;4.00;1.27;;;;;;;;;;5019871;28;20037;-84
2022/06/18 08:04:26;;;;;;;1.95;0.80;;;;;;;;;;5003716;28;20083;-85
2022/06/18 08:06:53;;;;;;;2.65;1.42;;;;;;;;;;5019621;28;20132;-85
2022/06/18 08:09:19;;;;;;;2.22;1.17;;;;;;;;;;5019831;28;20036;-85
2022/06/18 08:11:46;;;;;;;2.20;0.80;;;;;;;;;;5019449;28;20052;-85
2022/06/18 08:14:13;;;;;;;1.70;1.00;;;;;;;;;;5036004;28;20086;-85
2022/06/18 08:16:39;;;;;;;2.50;0.88;;;;;;;;;;5036361;28;20037;-85
2022/06/18 08:19:07;;;;;;;2.10;1.35;;;;;;;;;;5019449;28;20054;-84
2022/06/18 08:21:38;;;;;;;3.72;1.40;;;;;;;;;;5020081;28;20036;-84
2022/06/18 08:24:06;;;;;;;3.00;1.25;;;;;;;;;;5006266;28;20086;-85
2022/06/18 08:26:31;;;;;;;2.28;0.77;;;;;;;;;;5039393;28;20594;-85
2022/06/18 08:28:58;;;;;;;2.88;1.10;;;;;;;;;;5018998;28;20071;-84
2022/06/18 08:31:25;;;;;;;2.90;1.23;;;;;;;;;;5019316;28;20151;-85
2022/06/18 08:33:52;;;;;;;4.50;1.30;;;;;;;;;;4999880;28;20056;-85
2022/06/18 08:36:18;;;;;;;4.20;1.27;;;;;;;;;;5036110;28;20056;-85
2022/06/18 08:38:44;;;;;;;1.83;0.80;;;;;;;;;;5002558;28;20132;-85
2022/06/18 08:41:25;;;;;;;3.30;1.17;;;;;;;;;;5029737;28;20049;-85
2022/06/18 08:44:03;;;;;;;2.47;1.13;;;;;;;;;;5038416;28;20040;-85
2022/06/18 08:46:38;;;;;;;3.17;0.90;;;;;;;;;;5023678;28;20482;-85
2022/06/18 08:49:07;;;;;;;2.30;0.90;;;;;;;;;;5055658;28;20064;-84
2022/06/18 08:51:48;;;;;;;2.25;0.95;;;;;;;;;;5038611;28;20487;-85
2022/06/18 08:54:16;;;;;;;2.17;1.02;;;;;;;;;;5022985;28;20108;-85
2022/06/18 08:56:47;;;;;;;6.03;1.48;;;;;;;;;;5038696;28;20127;-85
2022/06/18 08:59:40;;;;;;;2.15;1.02;;;;;;;;;;5038668;28;20036;-85
2022/06/18 09:02:44;;;;;;;3.67;1.20;;;;;;;;;;5038527;28;20040;-85
2022/06/18 09:05:43;;;;;;;2.75;1.10;;;;;;;;;;4984232;28;20098;-84
2022/06/18 09:08:27;;;;;;;1.23;1.00;;;;;;;;;;5045111;28;20522;-85
2022/06/18 09:11:14;;;;;;;2.70;0.90;;;;;;;;;;5018188;28;20429;-84
2022/06/18 09:13:46;;;;;;;3.90;1.33;;;;;;;;;;5034858;28;20559;-85
2022/06/18 09:16:13;;;;;;;2.97;1.50;;;;;;;;;;5018313;28;20060;-84
2022/06/18 09:18:47;;;;;;;2.55;0.88;;;;;;;;;;5002083;28;20033;-85
2022/06/18 09:21:45;;;;;;;2.65;1.20;;;;;;;;;;5034707;28;20120;-84
2022/06/18 09:24:15;;;;;;;3.42;1.20;;;;;;;;;;5017790;28;20133;-85
2022/06/18 09:26:45;;;;;;;3.78;0.82;;;;;;;;;;5018594;28;20033;-84
2022/06/18 09:29:40;;;;;;;6.50;1.30;;;;;;;;;;5018334;28;20582;-85
2022/06/18 09:32:18;;;;;;;1.30;0.80;;;;;;;;;;5022674;28;20043;-85
2022/06/18 09:35:04;;;;;;;2.85;1.00;;;;;;;;;;5053707;28;20119;-85
2022/06/18 09:37:42;;;;;;;2.65;1.30;;;;;;;;;;5038845;28;20044;-85
2022/06/18 09:40:13;;;;;;;2.60;1.38;;;;;;;;;;5038058;28;20059;-85
2022/06/18 09:42:45;;;;;;;2.17;0.88;;;;;;;;;;5037550;28;20036;-84
2022/06/18 09:45:31;;;;;;;1.88;0.93;;;;;;;;;;5037622;28;20055;-85
2022/06/18 09:47:57;;;;;;;3.70;1.20;;;;;;;;;;5032630;28;20051;-90
2022/06/18 09:50:37;;;;;;;3.05;1.00;;;;;;;;;;5022219;28;20124;-88
2022/06/18 09:53:09;;;;;;;2.33;1.20;;;;;;;;;;5022809;28;20037;-90
2022/06/18 09:55:42;;;;;;;2.45;1.35;;;;;;;;;;5022597;28;20525;-86
2022/06/18 09:58:15;;;;;;;2.80;1.40;;;;;;;;;;5038059;28;20128;-87
2022/06/18 10:00:41;;;;;;;2.95;1.20;;;;;;;;;;5021807;28;20119;-85
2022/06/18 10:03:12;;;;;;;2.33;1.30;;;;;;;;;;5037710;28;20036;-85
2022/06/18 10:08:30;;;;;;;3.20;1.17;;;;;;;;;;5040318;28;20079;-85
2022/06/18 10:11:07;;;;;;;2.58;1.00;;;;;;;;;;5034141;28;20104;-86
2022/06/18 10:13:33;;;;;;;3.08;1.25;;;;;;;;;;5019210;28;20426;-86
2022/06/18 10:16:01;;;;;;;3.08;1.10;;;;;;;;;;5003945;28;20037;-85
2022/06/18 10:18:33;;;;;;;2.88;1.65;;;;;;;;;;5037560;28;20131;-85
2022/06/18 10:21:07;;;;;;;;;;;;;;;;;;5024115;28;20065;-86
2022/06/18 10:23:58;;;;;;;2.00;1.27;;;;;;;;;;5048171;28;19908;-85
2022/06/18 10:26:45;;;;;;;3.90;1.13;;;;;;;;;;5033714;28;20135;-86
2022/06/18 10:29:29;;;;;;;2.38;1.20;;;;;;;;;;5011634;28;20029;-86
2022/06/18 10:32:14;;;;;;;2.38;0.95;;;;;;;;;;5001346;28;20032;-86
2022/06/18 10:34:46;;;;;;;4.95;1.30;;;;;;;;;;5052412;28;20032;-84
2022/06/18 10:37:30;;;;;;;6.80;1.30;;;;;;;;;;5037557;28;20430;-85
2022/06/18 10:39:59;;;;;;;2.05;1.00;;;;;;;;;;5037082;28;20119;-86
2022/06/18 10:42:46;;;;;;;3.42;1.02;;;;;;;;;;5037188;28;20048;-85
2022/06/18 10:45:23;;;;;;;3.47;0.93;;;;;;;;;;5053672;28;20032;-85
2022/06/18 10:47:51;;;;;;;2.22;1.05;;;;;;;;;;5074546;28;20127;-85
2022/06/18 10:50:18;;;;;;;2.22;0.90;;;;;;;;;;5024600;28;20068;-86
2022/06/18 10:52:44;;;;;;;2.70;1.30;;;;;;;;;;5024918;28;20064;-86
2022/06/18 10:55:18;;;;;;;5.20;1.38;;;;;;;;;;5008139;28;20078;-85
2022/06/18 10:57:48;;;;;;;2.53;1.33;;;;;;;;;;5008136;28;20148;-85
2022/06/18 11:00:25;;;;;;;2.80;1.10;;;;;;;;;;5041063;28;20037;-85
2022/06/18 11:02:52;;;;;;;3.25;1.33;;;;;;;;;;5008082;28;20032;-85
2022/06/18 11:05:35;;;;;;;3.97;1.27;;;;;;;;;;5008153;28;20027;-85
2022/06/18 11:08:02;;;;;;;3.20;1.52;;;;;;;;;;5046726;28;20037;-85
2022/06/18 11:10:43;;;;;;;1.77;1.20;;;;;;;;;;5017749;28;20060;-85
2022/06/18 11:13:29;;;;;;;3.75;1.48;;;;;;;;;;5022032;28;20040;-85
2022/06/18 11:16:08;;;;;;;2.63;1.27;;;;;;;;;;5035120;28;20179;-86
2022/06/18 11:19:02;;;;;;;2.45;1.40;;;;;;;;;;5020765;28;20052;-85
2022/06/18 11:21:43;;;;;;;2.28;1.40;;;;;;;;;;5026682;28;20120;-84
2022/06/18 11:24:11;;;;;;;4.97;1.67;;;;;;;;;;5060572;28;20032;-85
2022/06/18 11:26:39;;;;;;;2.40;1.63;;;;;;;;;;5095390;28;20035;-85
2022/06/18 11:29:11;;;;;;;4.78;1.50;;;;;;;;;;5060129;28;20123;-85
2022/06/18 11:31:44;;;;;;;2.33;1.13;;;;;;;;;;5077297;28;20498;-85
2022/06/18 11:34:23;;;;;;;2.83;1.90;;;;;;;;;;5061682;28;20469;-85
2022/06/18 11:36:51;;;;;;;3.97;1.50;;;;;;;;;;5024851;28;20106;-85
2022/06/18 11:39:33;;;;;;;2.85;1.60;;;;;;;;;;5040235;28;20478;-86
2022/06/18 11:42:26;;;;;;;2.38;1.23;;;;;;;;;;5020141;28;20041;-86
2022/06/18 11:45:21;;;;;;;4.57;2.00;;;;;;;;;;5030154;28;20077;-85
2022/06/18 11:47:49;;;;;;;3.58;1.35;;;;;;;;;;5039180;28;20029;-85
2022/06/18 11:50:24;;;;;;;3.92;1.10;;;;;;;;;;5036670;28;20171;-85
2022/06/18 11:53:05;;;;;;;3.80;1.52;;;;;;;;;;5004617;28;20033;-85
2022/06/18 11:55:37;;;;;;;2.85;1.40;;;;;;;;;;5020176;28;20498;-86
2022/06/18 11:58:18;;;;;;;2.35;1.48;;;;;;;;;;5019133;28;20040;-85
2022/06/18 12:01:34;;;;;;;2.35;1.40;;;;;;;;;;5036191;28;20041;-86
2022/06/18 12:04:34;;;;;;;3.08;1.40;;;;;;;;;;4976706;28;20031;-85
2022/06/18 12:07:11;;;;;;;2.30;1.13;;;;;;;;;;5016842;28;20420;-85
2022/06/18 12:09:38;;;;;;;2.83;1.13;;;;;;;;;;5017938;28;20032;-85
2022/06/18 12:12:27;;;;;;;1.73;1.15;;;;;;;;;;5000561;28;20049;-85
2022/06/18 12:15:22;;;;;;;4.50;1.70;;;;;;;;;;5024687;28;20052;-85
2022/06/18 12:17:56;;;;;;;4.43;1.30;;;;;;;;;;5046112;28;20499;-86
2022/06/18 12:20:31;;;;;;;4.18;1.45;;;;;;;;;;5020382;28;20103;-85
2022/06/18 12:23:18;;;;;;;3.80;1.25;;;;;;;;;;5049937;28;20090;-85
2022/06/18 12:26:08;;;;;;;2.58;1.33;;;;;;;;;;5023435;28;20037;-84
2022/06/18 12:28:39;;;;;;;2.08;1.08;;;;;;;;;;5040718;28;20044;-85
2022/06/18 12:31:21;;;;;;;3.50;1.83;;;;;;;;;;5045843;28;20036;-86
2022/06/18 12:33:56;;;;;;;4.05;1.40;;;;;;;;;;5021116;28;20045;-85
2022/06/18 12:36:49;;;;;;;5.00;2.30;;;;;;;;;;5036121;28;20036;-84
2022/06/18 12:39:23;;;;;;;;;;;;;;;;;;4994861;28;20037;-85
2022/06/18 12:41:58;;;;;;;6.20;1.40;;;;;;;;;;5010571;28;19924;-85
2022/06/18 12:44:38;;;;;;;3.10;1.25;;;;;;;;;;5035533;28;20037;-85
2022/06/18 12:47:34;;;;;;;3.10;2.15;;;;;;;;;;5035549;28;20029;-86
2022/06/18 12:50:06;;;;;;;4.10;1.67;;;;;;;;;;4986402;28;20072;-86
2022/06/18 12:52:52;;;;;;;3.88;1.52;;;;;;;;;;5002881;28;20487;-86
2022/06/18 12:55:20;;;;;;;5.55;1.58;;;;;;;;;;5031116;28;20033;-86
2022/06/18 12:58:12;;;;;;;2.40;1.20;;;;;;;;;;5031881;28;20034;-84
2022/06/18 13:00:46;;;;;;;4.78;1.40;;;;;;;;;;5000171;28;20037;-85
2022/06/18 13:03:38;;;;;;;2.70;1.33;;;;;;;;;;5019163;28;20037;-85
2022/06/18 13:06:13;;;;;;;2.13;1.20;;;;;;;;;;5035300;28;20032;-85
2022/06/18 13:08:47;;;;;;;2.40;1.40;;;;;;;;;;5035143;28;20095;-86
2022/06/18 13:11:55;;;;;;;2.20;1.40;;;;;;;;;;5034604;28;20506;-86
2022/06/18 13:14:31;;;;;;;4.53;1.73;;;;;;;;;;4951882;28;20041;-85
2022/06/18 13:17:21;;;;;;;2.15;1.20;;;;;;;;;;5032074;28;20030;-85
2022/06/18 13:20:09;;;;;;;2.55;1.30;;;;;;;;;;5020203;28;20033;-86
2022/06/18 13:22:36;;;;;;;1.83;1.40;;;;;;;;;;5021909;28;20158;-86
2022/06/18 13:28:16;;;;;;;2.90;1.30;;;;;;;;;;5042829;28;20040;-86
2022/06/18 13:31:02;;;;;;;2.75;1.50;;;;;;;;;;5068968;28;20908;-84
2022/06/18 13:33:39;;;;;;;4.50;1.30;;;;;;;;;;5035212;28;20044;-86
2022/06/18 13:36:25;;;;;;;3.28;1.70;;;;;;;;;;5051535;28;20033;-85
2022/06/18 13:39:12;;;;;;;1.50;0.90;;;;;;;;;;5051142;28;20146;-86
2022/06/18 13:41:40;;;;;;;4.22;1.55;;;;;;;;;;5050538;28;20523;-86
2022/06/18 13:44:18;;;;;;;3.92;1.58;;;;;;;;;;5017932;28;20029;-86
2022/06/18 13:47:03;;;;;;;3.33;1.30;;;;;;;;;;5034487;28;20039;-85
2022/06/18 13:49:44;;;;;;;3.83;1.38;;;;;;;;;;5051063;28;20123;-85
2022/06/18 13:52:12;;;;;;;2.80;1.33;;;;;;;;;;5019341;28;20414;-86
2022/06/18 13:54:46;;;;;;;2.95;1.52;;;;;;;;;;5034840;28;20037;-85
2022/06/18 13:57:13;;;;;;;3.17;1.30;;;;;;;;;;5034201;28;20513;-86
2022/06/18 13:59:53;;;;;;;5.47;1.55;;;;;;;;;;5034096;28;20102;-87
2022/06/18 14:02:40;;;;;;;4.03;1.80;;;;;;;;;;5034777;28;20072;-86
2022/06/18 14:05:08;;;;;;;4.03;1.55;;;;;;;;;;5018267;28;20040;-86
2022/06/18 14:07:40;;;;;;;3.35;1.20;;;;;;;;;;5014748;28;20029;-84
2022/06/18 14:10:25;;;;;;;2.28;1.10;;;;;;;;;;5014484;28;20033;-83
2022/06/18 14:13:02;;;;;;;2.78;1.33;;;;;;;;;;5015354;28;20041;-84
2022/06/18 14:15:32;;;;;;;3.65;1.70;;;;;;;;;;5014477;28;20068;-84
2022/06/18 14:18:00;;;;;;;4.30;1.27;;;;;;;;;;4998385;28;20112;-84
2022/06/18 14:20:36;;;;;;;1.90;0.95;;;;;;;;;;5014528;28;20098;-84
2022/06/18 14:23:04;;;;;;;5.68;1.70;;;;;;;;;;5032200;28;20115;-83
2022/06/18 14:25:57;;;;;;;2.72;1.15;;;;;;;;;;5053839;28;20044;-85
2022/06/18 14:28:30;;;;;;;2.58;1.20;;;;;;;;;;5068552;28;20090;-86
2022/06/18 14:31:30;;;;;;;3.95;1.58;;;;;;;;;;5037797;28;20066;-86
2022/06/18 14:34:14;;;;;;;4.05;1.63;;;;;;;;;;5070294;28;20063;-85
2022/06/18 14:36:44;;;;;;;2.70;1.13;;;;;;;;;;5070191;28;20506;-85
2022/06/18 14:39:26;;;;;;;2.58;1.60;;;;;;;;;;5054120;28;20028;-85
2022/06/18 14:42:08;;;;;;;2.58;1.40;;;;;;;;;;5035467;28;20039;-86
2022/06/18 14:44:44;;;;;;;;;;;;;;;;;;5017560;28;20041;-86
2022/06/18 14:47:33;;;;;;;3.13;1.23;;;;;;;;;;5016823;28;19916;-86
2022/06/18 14:50:16;;;;;;;3.65;1.30;;;;;;;;;;5033387;28;20522;-86
2022/06/18 14:53:20;;;;;;;3.17;1.48;;;;;;;;;;5017962;28;20128;-91
2022/06/18 14:56:24;;;;;;;5.90;1.90;;;;;;;;;;5017756;28;20029;-89
2022/06/18 14:59:01;;;;;;;7.80;2.75;;;;;;;;;;5033826;28;20103;-91
2022/06/18 15:01:49;;;;;;;9.98;2.60;;;;;;;;;;5034077;28;20121;-90
2022/06/18 15:04:19;;;;;;;6.78;2.63;;;;;;;;;;5034214;28;20043;-91
2022/06/18 15:06:45;;;;;;;7.47;3.42;;;;;;;;;;5034301;28;20120;-90
2022/06/18 15:09:14;;;;;;;8.23;3.22;;;;;;;;;;5001436;28;20128;-90
2022/06/18 15:11:48;;;;;;;9.35;4.20;;;;;;;;;;5034008;28;20029;-90
2022/06/18 15:14:21;;;;;;;6.95;3.60;;;;;;;;;;5017474;28;20057;-88
2022/06/18 15:17:04;;;;;;;9.18;3.30;;;;;;;;;;5017392;28;20025;-88
2022/06/18 15:19:43;;;;;;;8.32;3.00;;;;;;;;;;5019463;28;20517;-88
2022/06/18 15:25:24;;;;;;;10.40;2.65;;;;;;;;;;5039075;28;20045;-90
2022/06/18 15:27:56;;;;;;;7.28;2.97;;;;;;;;;;5023286;28;20044;-90
2022/06/18 15:30:32;;;;;;;9.50;2.90;;;;;;;;;;5004477;28;20102;-89